This is the latest recevied weather packets stored in our database for station/object KD7MPG-3. If no packets are shown the sender has not sent any weather packets the latest 10 day(s).
| Time | Temp. | Humidity | Pressure | Rain* | Wind** | Luminosity | Snow |
|---|---|---|---|---|---|---|---|
| 1787861779 | 11.11° C | 92% | 1026.6 hPa | 0 mm | - | - | - |
| 1787861775 | 25° C | 60% | 1027.2 hPa | 0 mm | - | - | - |
| 1787861769 | 25° C | 61% | 1027.3 hPa | 0 mm | - | - | - |
| 1787861765 | 24.44° C | 61% | 1027.3 hPa | 0 mm | - | - | - |
| 1787861761 | 24.44° C | 63% | 1027.3 hPa | 0 mm | - | - | - |
| 1787861756 | 23.89° C | 63% | 1027.4 hPa | 0 mm | - | - | - |
| 1787861752 | 23.89° C | 64% | 1027.4 hPa | 0 mm | - | - | - |
| 1787861747 | 23.89° C | 61% | 1027.4 hPa | 0 mm | - | - | - |
| 1787861743 | 24.44° C | 61% | 1027.4 hPa | 0 mm | - | - | - |
| 1787861737 | 24.44° C | 60% | 1027.3 hPa | 0 mm | - | - | - |
| 1787861733 | 24.44° C | 64% | 1027.4 hPa | 0 mm | - | - | - |
| 1787861728 | 23.89° C | 64% | 1027.4 hPa | 0 mm | - | - | - |
| 1787861724 | 23.33° C | 64% | 1027.6 hPa | 0 mm | - | - | - |
| 1787861718 | 23.33° C | 64% | 1027.6 hPa | 0 mm | - | - | - |
| 1787861714 | 23.33° C | 63% | 1027.6 hPa | 0 mm | - | - | - |
| 1787861710 | 22.78° C | 67% | 1027.5 hPa | 0 mm | - | - | - |
| 1787861705 | 22.78° C | 67% | 1027.6 hPa | 0 mm | - | - | - |
| 1787861701 | 22.22° C | 68% | 1027.6 hPa | 0 mm | - | - | - |
| 1787861696 | 21.67° C | 69% | 1027.6 hPa | 0 mm | - | - | - |
| 1787861691 | 21.67° C | 69% | 1027.7 hPa | 0 mm | - | - | - |
| 1787861687 | 21.67° C | 67% | 1027.6 hPa | 0 mm | - | - | - |
| 1787861682 | 22.22° C | 66% | 1027.6 hPa | 0 mm | - | - | - |
| 1787861677 | 25.56° C | 57% | 1026.9 hPa | 0 mm | - | - | - |
| 1787861673 | 22.22° C | 67% | 1027.6 hPa | 0 mm | - | - | - |
| 1787861669 | 21.67° C | 68% | 1027.5 hPa | 0 mm | - | - | - |
* Rain latest hour (hover to see other rain measurements)
** Current wind speed in m/s (hover to see current wind gust speed)